»·PEaware :: N6704P KWHP-KSEE

N6704P :: KWHP-KSEE

FLIGHT INFORMATION

Flight Status: Arrived
Operator: Privately registered:
United States
More flights under this callsign
Pilot: Hayden F. (3713)
Aircraft: PIPER PA-24 COMMANCHE
(PA24)
More flights by this aircraft type
Origin: KWHP Whiteman
United States
Destination: KSEE Gillespie
United States
More flights between these airports :: More routes between these airports
Route: WHP1 VNY V186 HAILE V66 MZB
File this flight plan on PilotEdge
Remarks:
Altitude:
(Current/Filed)
9,000ft
Speed:
(Current/Filed)
175kts
Departed: 15-Aug-23 02:58 PM
Arrived: 15-Aug-23 03:58 PM
Distance/Time
Traveled:
112nm/1:00
Distance/Time
To Go:
Arrived

Flight Plot

Page will automatically refresh every two minutes.

Flight plan parsing failed; only flown route is shown


Map Options




Map Legend


Flown Route
Filed Route
Departure Airport
Arrival Airport
Navaid (VOR, NDB)
Fix

Horizontal Profiles

Position Reports

Time Latitude Longitude Heading Altitude Ground
Speed
15-Aug-23 14:39 34.265167 -118.413314 138 1022ft 0kts
15-Aug-23 14:40 34.265167 -118.413314 138 1022ft 0kts
15-Aug-23 14:41 34.265167 -118.413314 138 1022ft 0kts
15-Aug-23 14:42 34.265167 -118.413314 138 1022ft 0kts
15-Aug-23 14:43 34.265167 -118.413314 138 1022ft 0kts
15-Aug-23 14:44 34.265167 -118.413314 138 1022ft 0kts
15-Aug-23 14:45 34.265167 -118.413314 138 1022ft 0kts
15-Aug-23 14:46 34.265167 -118.413314 138 1022ft 0kts
15-Aug-23 14:47 34.265167 -118.413314 138 1022ft 0kts
15-Aug-23 14:48 34.265167 -118.413314 138 1022ft 0kts
15-Aug-23 14:49 34.265167 -118.413314 138 1022ft 0kts
15-Aug-23 14:50 34.265167 -118.413314 138 1022ft 0kts
15-Aug-23 14:51 34.263805 -118.414886 223 1010ft 16kts
15-Aug-23 14:52 34.263283 -118.415587 230 1005ft 0kts
15-Aug-23 14:53 34.263728 -118.417463 278 1006ft 0kts
15-Aug-23 14:54 34.263728 -118.417463 278 1006ft 0kts
15-Aug-23 14:55 34.263728 -118.417463 278 1006ft 0kts
15-Aug-23 14:56 34.263728 -118.417463 278 1006ft 0kts
15-Aug-23 14:57 34.255335 -118.409899 138 1311ft 76kts
15-Aug-23 14:58 34.243485 -118.427762 248 2203ft 89kts
15-Aug-23 14:59 34.235437 -118.454926 246 2889ft 87kts
15-Aug-23 15:00 34.227956 -118.483981 253 3625ft 95kts
15-Aug-23 15:01 34.243256 -118.500271 341 4444ft 98kts
15-Aug-23 15:02 34.259574 -118.521406 242 5333ft 92kts
15-Aug-23 15:03 34.240666 -118.517377 137 6039ft 91kts
15-Aug-23 15:04 34.224428 -118.493918 130 6723ft 92kts
15-Aug-23 15:05 34.214644 -118.464633 112 7494ft 96kts
15-Aug-23 15:06 34.205721 -118.434374 113 8249ft 95kts
15-Aug-23 15:07 34.195956 -118.404495 114 8950ft 101kts
15-Aug-23 15:08 34.183916 -118.365082 109 9015ft 141kts
15-Aug-23 15:09 34.170722 -118.318441 108 8997ft 150kts
15-Aug-23 15:10 34.157194 -118.271023 112 8993ft 149kts
15-Aug-23 15:11 34.142077 -118.224285 110 8989ft 150kts
15-Aug-23 15:12 34.127592 -118.177043 112 8983ft 150kts
15-Aug-23 15:13 34.113387 -118.129477 110 8982ft 150kts
15-Aug-23 15:14 34.098930 -118.082043 112 8982ft 150kts
15-Aug-23 15:15 34.084196 -118.034638 111 8974ft 151kts
15-Aug-23 15:16 34.069601 -117.987058 113 8972ft 152kts
15-Aug-23 15:17 34.054811 -117.939143 113 8969ft 152kts
15-Aug-23 15:18 34.040704 -117.890690 112 8999ft 155kts
15-Aug-23 15:19 34.024019 -117.842909 110 8998ft 154kts
15-Aug-23 15:20 34.010407 -117.794206 110 9000ft 154kts
15-Aug-23 15:21 33.995870 -117.745851 113 8962ft 154kts
15-Aug-23 15:22 33.977605 -117.699180 116 8962ft 154kts
15-Aug-23 15:23 33.961029 -117.651884 112 8961ft 153kts
15-Aug-23 15:24 33.945277 -117.603957 114 8962ft 152kts
15-Aug-23 15:25 33.928041 -117.557121 115 8966ft 153kts
15-Aug-23 15:26 33.908872 -117.511790 130 8963ft 152kts
15-Aug-23 15:27 33.872626 -117.487838 162 8961ft 151kts
15-Aug-23 15:28 33.835050 -117.466703 139 8964ft 150kts
15-Aug-23 15:29 33.803904 -117.432817 138 8959ft 150kts
15-Aug-23 15:30 33.770451 -117.403413 149 8990ft 149kts
15-Aug-23 15:31 33.734245 -117.378055 145 8985ft 151kts
15-Aug-23 15:32 33.701142 -117.346878 142 8982ft 151kts
15-Aug-23 15:33 33.666013 -117.318592 146 8978ft 152kts
15-Aug-23 15:34 33.630932 -117.289995 146 8975ft 152kts
15-Aug-23 15:35 33.596034 -117.260946 141 8976ft 153kts
15-Aug-23 15:36 33.561461 -117.230961 144 8979ft 153kts
15-Aug-23 15:37 33.525702 -117.202213 144 8974ft 155kts
15-Aug-23 15:38 33.490294 -117.173019 143 8961ft 154kts
15-Aug-23 15:39 33.453014 -117.147011 163 8966ft 156kts
15-Aug-23 15:40 33.409634 -117.147290 183 8963ft 156kts
15-Aug-23 15:41 33.366711 -117.141902 164 8965ft 156kts
15-Aug-23 15:42 33.325165 -117.126780 163 8968ft 155kts
15-Aug-23 15:43 33.282181 -117.121651 170 8969ft 155kts
15-Aug-23 15:44 33.240737 -117.107984 161 8505ft 155kts
15-Aug-23 15:45 33.199854 -117.092523 160 7840ft 153kts
15-Aug-23 15:46 33.159432 -117.076640 161 7142ft 152kts
15-Aug-23 15:47 33.119427 -117.061331 161 6391ft 151kts
15-Aug-23 15:48 33.079401 -117.045443 161 5619ft 151kts
15-Aug-23 15:49 33.044287 -117.031594 161 5984ft 138kts
15-Aug-23 15:50 33.006398 -117.016342 160 6012ft 147kts
15-Aug-23 15:51 32.967054 -117.000543 161 6000ft 149kts
15-Aug-23 15:52 32.926303 -116.984743 164 5506ft 172kts
15-Aug-23 15:53 32.879196 -116.971339 169 3866ft 178kts
15-Aug-23 15:54 32.850375 -116.930157 107 2626ft 155kts
15-Aug-23 15:55 32.821369 -116.921168 232 1838ft 104kts
15-Aug-23 15:56 32.823872 -116.949937 280 832ft 89kts
15-Aug-23 15:57 32.827649 -116.971161 281 367ft 19kts
15-Aug-23 15:58 32.828670 -116.971076 27 369ft 3kts
15-Aug-23 16:00 32.828751 -116.970852 90 369ft 0kts
15-Aug-23 16:01 32.828751 -116.970852 90 369ft 0kts
15-Aug-23 16:02 32.828751 -116.970852 90 369ft 0kts
15-Aug-23 16:03 32.828751 -116.970852 90 369ft 0kts

Navigation Log

Ident Type
Flight plan parsing failed, navigation log unavailable